METAR AND TAF INFORMATION
METAR FOR UAII
ADDS - METARS form results

(0924 UTC 22 July 2019)
Data provider http://aviationweather.gov/metar/data/
 
METAR text: UAII 220900Z 33002MPS 270V060 CAVOK 39/10 Q1007 R28/0///70 NOSIG RMK QFE718/0957
Conditions at: UAII (CIMKENT , KZ) observed 0900 UTC 22 July 2019
Temperature: 39.0°C (102°F)
Dewpoint: 10.0°C (50°F) [RH = 18%]
Pressure (altimeter): 29.73 inches Hg (1007.0 mb)
Winds: from the NNW (330 degrees) at 5 MPH (4 knots; 2.1 m/s)
Visibility: 6 or more miles (10+ km)
Ceiling: ceiling and visibility are OK
Clouds: unknown
Weather: no significant weather observed at this time

METAR text: UAII 220830Z 31003MPS CAVOK 38/08 Q1007 R10/0///70 NOSIG RMK QFE720/0960
Conditions at: UAII (CIMKENT , KZ) observed 0830 UTC 22 July 2019
Temperature: 38.0°C (100°F)
Dewpoint: 8.0°C (46°F) [RH = 16%]
Pressure (altimeter): 29.73 inches Hg (1007.0 mb)
Winds: from the NW (310 degrees) at 7 MPH (6 knots; 3.1 m/s)
Visibility: 6 or more miles (10+ km)
Ceiling: ceiling and visibility are OK
Clouds: unknown
Weather: no significant weather observed at this time

Forecast for: UAII (CIMKENT , KZ)
Text: TAF UAII 220500Z 2206/2306 35003G08MPS CAVOK TX41/2210Z TN22/2301Z
Forecast period: 0600 UTC 22 July 2019 to 0600 UTC 23 July 2019
Forecast type: FROM: standard forecast or significant change
Winds: from the N (350 degrees) at 7 MPH (6 knots; 3.1 m/s)
gusting to 18 MPH (16 knots; 8.2 m/s)
Visibility: 6 or more miles 10+ km)
Ceiling: unknown
Clouds: missing
Weather: no significant weather forecast for this period
Text: TEMPO 2206/2215 03005G10MPS
Forecast period: 0600 to 1500 UTC 22 July 2019
Forecast type: TEMPORARY: The following changes expected for less than half the time period
Winds: from the NNE (30 degrees) at 12 MPH (10 knots; 5.1 m/s)
gusting to 22 MPH (19 knots; 9.8 m/s)
Visibility: missing
Ceiling: unknown
Clouds: missing
Weather: no significant weather forecast for this period
Text: TEMPO 2215/2303 09005MPS
Forecast period: 1500 UTC 22 July 2019 to 0300 UTC 23 July 2019
Forecast type: TEMPORARY: The following changes expected for less than half the time period
Winds: from the E (90 degrees) at 12 MPH (10 knots; 5.1 m/s)
Visibility: missing
Ceiling: unknown
Clouds: missing
Weather: no significant weather forecast for this period

 AIRPORT MAP

 RUNWAY INFORMATION

 AIRPORT FREQUENCIES
Type TWR Name TWR Frequency 118.7 MHZ

 AIRPORT NEAR NAVIGATION AIDS
Type NDB Name Shymkent Frequency 360 KHZ
Type NDB Name Shymkent Frequency 360 KHZ



2018 Air Astana Virtual Airline